Time;durP1;ratioP1;P1;durP2;ratioP2;P2;SDS_P1;SDS_P2;PMS_P1;PMS_P2;Temp;Humidity;BMP_temperature;BMP_pressure;BME280_temperature;BME280_humidity;BME280_pressure;Samples;Min_cycle;Max_cycle;Signal;HPM_P1;HPM_P2
2023/07/03 00:00:26;;;;;;;14.75;7.28;;;;;;;;;;5033746;28;20699;-80
2023/07/03 00:02:53;;;;;;;13.50;7.10;;;;;;;;;;5033259;28;20203;-80
2023/07/03 00:05:20;;;;;;;13.02;7.70;;;;;;;;;;5033665;28;20624;-80
2023/07/03 00:07:47;;;;;;;14.23;7.00;;;;;;;;;;5033077;28;20598;-82
2023/07/03 00:10:15;;;;;;;12.15;6.65;;;;;;;;;;5033556;28;20223;-80
2023/07/03 00:12:42;;;;;;;12.30;6.53;;;;;;;;;;5033463;28;20211;-80
2023/07/03 00:15:10;;;;;;;15.70;7.13;;;;;;;;;;5032864;28;20245;-78
2023/07/03 00:17:38;;;;;;;12.93;6.78;;;;;;;;;;5033271;28;20207;-80
2023/07/03 00:20:06;;;;;;;12.68;6.80;;;;;;;;;;5032689;28;20246;-79
2023/07/03 00:22:33;;;;;;;17.27;6.53;;;;;;;;;;5033435;28;20309;-79
2023/07/03 00:25:00;;;;;;;13.02;6.43;;;;;;;;;;5032709;28;20226;-79
2023/07/03 00:27:27;;;;;;;12.50;6.78;;;;;;;;;;5033238;28;20206;-79
2023/07/03 00:29:54;;;;;;;12.93;7.40;;;;;;;;;;5032655;28;20300;-79
2023/07/03 00:32:21;;;;;;;14.43;7.50;;;;;;;;;;5033286;28;20233;-79
2023/07/03 00:34:50;;;;;;;18.08;7.95;;;;;;;;;;5032423;28;20242;-80
2023/07/03 00:37:17;;;;;;;15.95;7.30;;;;;;;;;;5032852;28;20211;-79
2023/07/03 00:39:45;;;;;;;11.25;7.03;;;;;;;;;;5032303;28;20613;-80
2023/07/03 00:42:12;;;;;;;12.45;6.28;;;;;;;;;;5033142;28;20211;-80
2023/07/03 00:44:39;;;;;;;13.98;6.93;;;;;;;;;;5032333;28;20237;-80
2023/07/03 00:47:06;;;;;;;14.10;6.70;;;;;;;;;;5032998;28;20218;-79
2023/07/03 00:49:33;;;;;;;11.95;6.75;;;;;;;;;;5032416;28;20250;-79
2023/07/03 00:52:02;;;;;;;15.38;7.10;;;;;;;;;;5032109;28;20210;-79
2023/07/03 00:54:30;;;;;;;12.82;6.60;;;;;;;;;;5032123;28;20775;-78
2023/07/03 00:56:57;;;;;;;11.68;6.78;;;;;;;;;;5032647;28;20299;-79
2023/07/03 00:59:24;;;;;;;20.38;7.10;;;;;;;;;;5031978;28;20242;-79
2023/07/03 01:01:54;;;;;;;14.30;6.90;;;;;;;;;;5029832;28;20242;-79
2023/07/03 01:04:22;;;;;;;12.07;6.65;;;;;;;;;;5031758;28;20222;-78
2023/07/03 01:06:54;;;;;;;14.75;6.93;;;;;;;;;;5027944;28;20210;-78
2023/07/03 01:09:24;;;;;;;14.00;7.30;;;;;;;;;;5012002;28;20249;-79
2023/07/03 01:11:51;;;;;;;15.63;8.85;;;;;;;;;;5020069;28;20198;-79
2023/07/03 01:14:19;;;;;;;14.65;6.35;;;;;;;;;;5031788;28;20325;-77
2023/07/03 01:16:48;;;;;;;12.63;6.97;;;;;;;;;;5032250;28;20661;-79
2023/07/03 01:19:18;;;;;;;13.50;6.93;;;;;;;;;;5031797;28;20246;-79
2023/07/03 01:21:48;;;;;;;13.23;6.60;;;;;;;;;;5032251;28;20209;-80
2023/07/03 01:24:16;;;;;;;13.07;6.43;;;;;;;;;;5031780;28;20597;-79
2023/07/03 01:26:45;;;;;;;13.15;6.82;;;;;;;;;;5032134;28;20321;-80
2023/07/03 01:29:13;;;;;;;14.52;7.35;;;;;;;;;;5031400;28;20249;-80
2023/07/03 01:31:41;;;;;;;13.57;7.32;;;;;;;;;;5032096;28;20206;-80
2023/07/03 01:34:10;;;;;;;12.00;7.38;;;;;;;;;;5031484;28;20246;-79
2023/07/03 01:36:37;;;;;;;13.80;6.68;;;;;;;;;;5031877;28;20257;-80
2023/07/03 01:39:04;;;;;;;12.07;7.20;;;;;;;;;;5031186;28;20241;-79
2023/07/03 01:41:31;;;;;;;13.10;6.85;;;;;;;;;;5031997;28;20202;-79
2023/07/03 01:44:00;;;;;;;13.80;7.00;;;;;;;;;;5031296;28;20234;-78
2023/07/03 01:46:27;;;;;;;15.77;7.03;;;;;;;;;;5031722;28;20213;-79
2023/07/03 01:48:54;;;;;;;15.52;7.78;;;;;;;;;;5030978;28;20246;-80
2023/07/03 01:51:26;;;;;;;15.15;6.97;;;;;;;;;;5031909;28;20305;-80
2023/07/03 01:53:57;;;;;;;12.75;6.88;;;;;;;;;;5031022;28;20704;-79
2023/07/03 01:56:26;;;;;;;15.60;7.70;;;;;;;;;;5031543;28;20234;-79
2023/07/03 01:58:55;;;;;;;15.15;7.40;;;;;;;;;;5030949;28;20242;-80
2023/07/03 02:01:27;;;;;;;11.75;7.22;;;;;;;;;;5031662;28;20237;-80
2023/07/03 02:03:57;;;;;;;13.25;7.10;;;;;;;;;;5031112;28;20235;-80
2023/07/03 02:06:26;;;;;;;13.25;7.22;;;;;;;;;;5031626;28;20203;-80
2023/07/03 02:08:54;;;;;;;13.80;6.88;;;;;;;;;;5030662;28;20246;-80
2023/07/03 02:11:22;;;;;;;12.90;7.07;;;;;;;;;;5032134;28;20214;-80
2023/07/03 02:13:49;;;;;;;14.20;6.95;;;;;;;;;;5030951;28;20231;-80
2023/07/03 02:16:16;;;;;;;13.80;7.23;;;;;;;;;;5031519;28;20230;-80
2023/07/03 02:18:46;;;;;;;19.07;6.97;;;;;;;;;;5030939;28;20429;-79
2023/07/03 02:21:13;;;;;;;13.80;6.53;;;;;;;;;;5031357;28;20213;-79
2023/07/03 02:23:41;;;;;;;14.57;7.50;;;;;;;;;;5031068;28;20665;-79
2023/07/03 02:26:09;;;;;;;13.00;7.03;;;;;;;;;;5031161;28;20891;-80
2023/07/03 02:28:36;;;;;;;13.53;7.37;;;;;;;;;;5030658;28;20720;-80
2023/07/03 02:31:03;;;;;;;11.68;7.03;;;;;;;;;;5031215;28;20733;-79
2023/07/03 02:33:31;;;;;;;14.90;7.07;;;;;;;;;;5030731;28;20589;-79
2023/07/03 02:36:02;;;;;;;14.27;7.35;;;;;;;;;;5030928;28;20232;-79
2023/07/03 02:38:29;;;;;;;16.02;6.88;;;;;;;;;;5030775;28;20642;-80
2023/07/03 02:40:56;;;;;;;14.32;7.10;;;;;;;;;;5031302;28;20363;-80
2023/07/03 02:43:23;;;;;;;15.73;6.93;;;;;;;;;;5031089;28;20238;-79
2023/07/03 02:45:50;;;;;;;14.13;7.40;;;;;;;;;;5030420;28;20217;-80
2023/07/03 02:48:17;;;;;;;16.53;7.77;;;;;;;;;;5030588;28;20242;-79
2023/07/03 02:50:44;;;;;;;12.50;7.60;;;;;;;;;;5031323;28;20229;-79
2023/07/03 02:53:12;;;;;;;16.87;8.03;;;;;;;;;;5030486;28;20241;-79
2023/07/03 02:55:39;;;;;;;13.40;7.10;;;;;;;;;;5031069;28;20237;-79
2023/07/03 02:58:07;;;;;;;14.27;8.00;;;;;;;;;;5030225;28;20230;-79
2023/07/03 03:00:35;;;;;;;13.82;7.35;;;;;;;;;;5031248;28;20205;-79
2023/07/03 03:03:02;;;;;;;17.30;7.13;;;;;;;;;;5030580;28;20297;-80
2023/07/03 03:05:29;;;;;;;16.00;7.57;;;;;;;;;;5031091;28;20207;-79
2023/07/03 03:07:56;;;;;;;15.90;7.30;;;;;;;;;;5030318;28;20214;-80
2023/07/03 03:10:24;;;;;;;14.97;7.83;;;;;;;;;;5031165;28;20215;-80
2023/07/03 03:12:52;;;;;;;12.60;7.37;;;;;;;;;;5030548;28;20682;-80
2023/07/03 03:15:19;;;;;;;14.67;7.90;;;;;;;;;;5031230;28;20249;-79
2023/07/03 03:17:46;;;;;;;15.63;8.00;;;;;;;;;;5033954;28;20206;-80
2023/07/03 03:20:14;;;;;;;12.20;7.60;;;;;;;;;;5034213;28;20227;-79
2023/07/03 03:22:41;;;;;;;16.33;7.93;;;;;;;;;;5034582;28;20211;-78
2023/07/03 03:25:08;;;;;;;12.30;7.20;;;;;;;;;;5034148;28;20681;-80
2023/07/03 03:27:37;;;;;;;17.67;7.20;;;;;;;;;;5034342;28;20210;-80
2023/07/03 03:30:04;;;;;;;15.93;7.70;;;;;;;;;;5033491;28;20245;-79
2023/07/03 03:32:31;;;;;;;15.45;7.45;;;;;;;;;;5034473;28;20691;-79
2023/07/03 03:34:58;;;;;;;15.65;8.48;;;;;;;;;;5033598;28;20235;-79
2023/07/03 03:37:25;;;;;;;15.00;7.30;;;;;;;;;;5034251;28;20207;-80
2023/07/03 03:39:53;;;;;;;17.33;7.70;;;;;;;;;;5033796;28;20242;-80
2023/07/03 03:42:20;;;;;;;12.83;7.33;;;;;;;;;;5034150;28;20665;-79
2023/07/03 03:44:48;;;;;;;14.40;6.73;;;;;;;;;;5033548;28;20755;-80
2023/07/03 03:47:15;;;;;;;17.50;7.83;;;;;;;;;;5033860;28;20211;-79
2023/07/03 03:49:42;;;;;;;16.80;7.50;;;;;;;;;;5033395;28;20238;-80
2023/07/03 03:52:09;;;;;;;14.37;7.13;;;;;;;;;;5034110;28;20290;-80
2023/07/03 03:54:36;;;;;;;14.40;7.57;;;;;;;;;;5033427;28;20241;-79
2023/07/03 03:57:04;;;;;;;16.50;7.47;;;;;;;;;;5033598;28;20227;-79
2023/07/03 03:59:31;;;;;;;16.33;7.47;;;;;;;;;;5032948;28;20247;-79
2023/07/03 04:01:59;;;;;;;14.70;7.67;;;;;;;;;;5033637;28;20594;-79
2023/07/03 04:04:26;;;;;;;15.65;8.07;;;;;;;;;;5033423;28;20646;-79
2023/07/03 04:06:53;;;;;;;13.07;7.37;;;;;;;;;;5033759;28;20244;-79
2023/07/03 04:09:20;;;;;;;16.80;8.10;;;;;;;;;;5033122;28;20293;-79
2023/07/03 04:11:47;;;;;;;17.45;7.45;;;;;;;;;;5033773;28;20285;-80
2023/07/03 04:14:15;;;;;;;13.90;7.10;;;;;;;;;;5032999;28;20238;-80
2023/07/03 04:16:43;;;;;;;15.37;8.10;;;;;;;;;;5033764;28;20230;-81
2023/07/03 04:19:11;;;;;;;14.73;7.53;;;;;;;;;;5032963;28;20245;-80
2023/07/03 04:21:39;;;;;;;15.37;7.63;;;;;;;;;;5033766;28;20214;-80
2023/07/03 04:24:06;;;;;;;12.73;7.43;;;;;;;;;;5033105;28;20238;-80
2023/07/03 04:26:36;;;;;;;12.17;7.33;;;;;;;;;;5033086;28;20523;-80
2023/07/03 04:29:03;;;;;;;12.47;7.27;;;;;;;;;;5032277;28;20240;-80
2023/07/03 04:31:31;;;;;;;15.93;8.00;;;;;;;;;;5033364;28;20202;-80
2023/07/03 04:33:58;;;;;;;12.77;6.90;;;;;;;;;;5032973;28;20266;-80
2023/07/03 04:36:27;;;;;;;12.20;7.23;;;;;;;;;;5033150;28;20238;-81
2023/07/03 04:38:57;;;;;;;18.03;7.67;;;;;;;;;;5032688;28;20243;-80
2023/07/03 04:41:24;;;;;;;12.70;6.70;;;;;;;;;;5033344;28;20214;-80
2023/07/03 04:43:51;;;;;;;13.37;6.73;;;;;;;;;;5032739;28;20234;-81
2023/07/03 04:46:25;;;;;;;22.53;7.27;;;;;;;;;;5033016;28;20453;-80
2023/07/03 04:48:52;;;;;;;17.67;8.10;;;;;;;;;;5032397;28;20316;-80
2023/07/03 04:51:20;;;;;;;13.83;7.00;;;;;;;;;;5032943;28;20210;-81
2023/07/03 04:53:49;;;;;;;12.30;6.43;;;;;;;;;;5032570;28;20245;-80
2023/07/03 04:56:16;;;;;;;13.90;7.37;;;;;;;;;;5032718;28;20222;-81
2023/07/03 04:58:43;;;;;;;15.30;7.00;;;;;;;;;;5032024;28;20245;-81
2023/07/03 05:01:11;;;;;;;16.87;7.60;;;;;;;;;;5032530;28;20198;-80
2023/07/03 05:03:39;;;;;;;13.63;6.77;;;;;;;;;;5032365;28;20231;-81
2023/07/03 05:06:06;;;;;;;13.43;7.20;;;;;;;;;;5032800;28;20227;-81
2023/07/03 05:08:33;;;;;;;12.73;6.47;;;;;;;;;;5031915;28;20242;-82
2023/07/03 05:11:01;;;;;;;15.80;6.60;;;;;;;;;;5032434;28;20562;-81
2023/07/03 05:13:29;;;;;;;14.03;6.83;;;;;;;;;;5032143;28;20238;-81
2023/07/03 05:15:56;;;;;;;13.70;6.67;;;;;;;;;;5032872;28;20272;-81
2023/07/03 05:18:23;;;;;;;16.00;6.93;;;;;;;;;;5031706;28;20242;-81
2023/07/03 05:20:50;;;;;;;11.50;6.70;;;;;;;;;;5032274;28;20207;-81
2023/07/03 05:23:18;;;;;;;15.03;6.70;;;;;;;;;;5031835;28;20265;-81
2023/07/03 05:25:45;;;;;;;12.77;6.83;;;;;;;;;;5032243;28;20676;-80
2023/07/03 05:28:13;;;;;;;11.87;6.50;;;;;;;;;;5031513;28;20692;-81
2023/07/03 05:30:41;;;;;;;15.10;5.93;;;;;;;;;;5032210;28;20294;-80
2023/07/03 05:33:10;;;;;;;12.00;5.63;;;;;;;;;;5031469;28;20230;-81
2023/07/03 05:35:38;;;;;;;11.93;5.40;;;;;;;;;;5032109;28;20625;-80
2023/07/03 05:38:05;;;;;;;13.63;5.60;;;;;;;;;;5031021;28;20242;-81
2023/07/03 05:40:32;;;;;;;13.07;5.73;;;;;;;;;;5031807;28;20210;-80
2023/07/03 05:42:59;;;;;;;13.00;5.20;;;;;;;;;;5031655;28;20218;-80
2023/07/03 05:45:27;;;;;;;12.07;5.33;;;;;;;;;;5031565;28;20214;-80
2023/07/03 05:47:54;;;;;;;10.90;5.00;;;;;;;;;;5031281;28;20218;-80
2023/07/03 05:50:22;;;;;;;14.00;5.37;;;;;;;;;;5031898;28;20485;-80
2023/07/03 05:52:49;;;;;;;10.40;5.03;;;;;;;;;;5031338;28;20218;-80
2023/07/03 05:55:16;;;;;;;9.57;5.03;;;;;;;;;;5031772;28;20412;-80
2023/07/03 05:57:43;;;;;;;11.13;4.85;;;;;;;;;;5031486;28;20234;-80
2023/07/03 06:00:13;;;;;;;13.03;4.83;;;;;;;;;;5031017;28;20237;-79
2023/07/03 06:02:41;;;;;;;13.83;5.60;;;;;;;;;;5031809;28;20273;-79
2023/07/03 06:05:09;;;;;;;10.90;4.80;;;;;;;;;;5031178;28;20241;-80
2023/07/03 06:07:36;;;;;;;14.20;5.35;;;;;;;;;;5031526;28;20207;-80
2023/07/03 06:10:04;;;;;;;12.47;4.73;;;;;;;;;;5031106;28;20246;-80
2023/07/03 06:12:31;;;;;;;10.27;4.50;;;;;;;;;;5031711;28;20216;-79
2023/07/03 06:14:58;;;;;;;9.23;4.63;;;;;;;;;;5031337;28;20244;-80
2023/07/03 06:17:25;;;;;;;10.88;4.75;;;;;;;;;;5031379;28;20226;-79
2023/07/03 06:19:54;;;;;;;11.43;4.55;;;;;;;;;;5031006;28;20242;-79
2023/07/03 06:22:21;;;;;;;9.30;4.00;;;;;;;;;;5031434;28;20203;-81
2023/07/03 06:24:48;;;;;;;7.97;4.78;;;;;;;;;;5030967;28;20234;-80
2023/07/03 06:27:15;;;;;;;12.90;4.10;;;;;;;;;;5031392;28;20207;-81
2023/07/03 06:29:42;;;;;;;10.02;4.28;;;;;;;;;;5030938;28;20325;-80
2023/07/03 06:32:10;;;;;;;8.82;4.43;;;;;;;;;;5031330;28;20207;-81
2023/07/03 06:34:39;;;;;;;9.63;4.20;;;;;;;;;;5030999;28;20235;-81
2023/07/03 06:37:07;;;;;;;12.17;4.03;;;;;;;;;;5031661;28;20223;-81
2023/07/03 06:39:35;;;;;;;12.38;5.53;;;;;;;;;;5030946;28;20279;-78
2023/07/03 06:42:03;;;;;;;12.70;4.50;;;;;;;;;;5031265;28;20235;-80
2023/07/03 06:44:30;;;;;;;10.63;4.43;;;;;;;;;;5030808;28;20235;-80
2023/07/03 06:46:57;;;;;;;7.82;4.53;;;;;;;;;;5031344;28;20211;-80
2023/07/03 06:49:25;;;;;;;9.30;3.92;;;;;;;;;;5030615;28;20246;-81
2023/07/03 06:51:52;;;;;;;10.02;4.28;;;;;;;;;;5034441;28;20617;-80
2023/07/03 06:54:21;;;;;;;9.68;4.25;;;;;;;;;;5034748;28;20238;-80
2023/07/03 06:56:48;;;;;;;11.13;4.57;;;;;;;;;;5035223;28;20239;-81
2023/07/03 06:59:16;;;;;;;11.60;3.92;;;;;;;;;;5034482;28;20250;-78
2023/07/03 07:01:43;;;;;;;12.57;4.03;;;;;;;;;;5015583;28;20238;-80
2023/07/03 07:04:10;;;;;;;12.90;4.25;;;;;;;;;;5014571;28;20744;-80
2023/07/03 07:06:37;;;;;;;11.15;4.28;;;;;;;;;;5015444;28;20692;-81
2023/07/03 07:09:04;;;;;;;10.05;3.63;;;;;;;;;;5014626;28;20239;-81
2023/07/03 07:11:34;;;;;;;10.48;4.07;;;;;;;;;;5015272;28;20622;-80
2023/07/03 07:14:02;;;;;;;9.98;4.18;;;;;;;;;;5014531;28;20236;-80
2023/07/03 07:16:31;;;;;;;8.00;3.75;;;;;;;;;;5014717;28;20725;-78
2023/07/03 07:19:00;;;;;;;11.05;3.90;;;;;;;;;;5014236;28;20235;-80
2023/07/03 07:21:27;;;;;;;10.95;4.22;;;;;;;;;;5014919;28;20658;-81
2023/07/03 07:23:55;;;;;;;12.98;4.18;;;;;;;;;;5014383;28;20243;-78
2023/07/03 07:26:23;;;;;;;7.85;3.63;;;;;;;;;;5014572;28;20215;-79
2023/07/03 07:28:51;;;;;;;10.98;3.80;;;;;;;;;;5014196;28;20246;-79
2023/07/03 07:31:19;;;;;;;9.43;3.50;;;;;;;;;;5014687;28;20214;-80
2023/07/03 07:33:46;;;;;;;17.70;4.95;;;;;;;;;;5014324;28;20736;-77
2023/07/03 07:36:14;;;;;;;9.05;3.83;;;;;;;;;;5014774;28;20231;-79
2023/07/03 07:38:41;;;;;;;11.02;3.83;;;;;;;;;;5013946;28;20618;-78
2023/07/03 07:41:08;;;;;;;10.50;3.85;;;;;;;;;;5014508;28;20207;-78
2023/07/03 07:43:35;;;;;;;8.45;3.50;;;;;;;;;;5014187;28;20310;-79
2023/07/03 07:46:03;;;;;;;6.78;2.90;;;;;;;;;;5014208;28;20220;-78
2023/07/03 07:48:31;;;;;;;10.70;3.15;;;;;;;;;;5013700;28;20243;-81
2023/07/03 07:50:58;;;;;;;7.97;2.72;;;;;;;;;;5014639;28;20302;-80
2023/07/03 07:53:26;;;;;;;5.38;2.55;;;;;;;;;;5013681;28;20874;-79
2023/07/03 07:55:53;;;;;;;7.30;2.78;;;;;;;;;;5014719;28;20235;-77
2023/07/03 07:58:20;;;;;;;4.72;2.78;;;;;;;;;;5013735;28;20238;-79
2023/07/03 08:00:51;;;;;;;5.85;2.60;;;;;;;;;;5014310;28;20214;-81
2023/07/03 08:03:19;;;;;;;9.35;2.88;;;;;;;;;;5013606;28;20234;-80
2023/07/03 08:05:46;;;;;;;7.63;2.78;;;;;;;;;;5014147;28;20215;-79
2023/07/03 08:08:13;;;;;;;4.95;2.72;;;;;;;;;;5013359;28;20234;-80
2023/07/03 08:10:41;;;;;;;7.47;2.72;;;;;;;;;;5014151;28;20207;-80
2023/07/03 08:13:08;;;;;;;9.00;3.10;;;;;;;;;;5013728;28;20259;-78
2023/07/03 08:15:35;;;;;;;6.13;2.60;;;;;;;;;;5013803;28;20234;-80
2023/07/03 08:18:03;;;;;;;5.43;2.47;;;;;;;;;;5013593;28;20246;-80
2023/07/03 08:20:31;;;;;;;8.90;2.67;;;;;;;;;;5013673;28;20207;-80
2023/07/03 08:22:59;;;;;;;5.97;2.58;;;;;;;;;;5013663;28;20217;-80
2023/07/03 08:25:26;;;;;;;7.40;2.70;;;;;;;;;;5013844;28;20207;-81
2023/07/03 08:27:53;;;;;;;5.32;2.50;;;;;;;;;;5013671;28;20207;-80
2023/07/03 08:30:21;;;;;;;4.88;2.67;;;;;;;;;;5013880;28;20212;-81
2023/07/03 08:32:49;;;;;;;4.45;2.40;;;;;;;;;;5013384;28;20211;-82
2023/07/03 08:35:16;;;;;;;7.32;2.95;;;;;;;;;;5013752;28;20211;-79
2023/07/03 08:37:45;;;;;;;6.28;2.88;;;;;;;;;;5013410;28;20235;-81
2023/07/03 08:40:16;;;;;;;6.80;2.25;;;;;;;;;;5013229;28;20235;-81
2023/07/03 08:42:47;;;;;;;3.85;2.25;;;;;;;;;;5013775;28;20218;-80
2023/07/03 08:45:16;;;;;;;5.78;2.70;;;;;;;;;;5012899;28;20317;-78
2023/07/03 08:47:44;;;;;;;4.28;2.33;;;;;;;;;;5013264;28;20250;-80
2023/07/03 08:50:13;;;;;;;9.35;2.70;;;;;;;;;;5013037;28;20242;-80
2023/07/03 08:52:43;;;;;;;6.82;2.60;;;;;;;;;;5013332;28;20211;-80
2023/07/03 08:55:13;;;;;;;5.70;2.80;;;;;;;;;;5012852;28;20318;-80
2023/07/03 08:57:40;;;;;;;5.65;2.45;;;;;;;;;;5013025;28;20579;-80
2023/07/03 09:00:10;;;;;;;5.28;2.45;;;;;;;;;;5019368;28;20605;-79
2023/07/03 09:02:42;;;;;;;6.38;2.40;;;;;;;;;;5033241;28;20211;-80
2023/07/03 09:05:16;;;;;;;3.42;2.15;;;;;;;;;;5032295;28;20292;-81
2023/07/03 09:07:46;;;;;;;5.60;2.45;;;;;;;;;;5032777;28;20580;-80
2023/07/03 09:10:16;;;;;;;5.10;2.40;;;;;;;;;;5032331;28;20231;-80
2023/07/03 09:12:46;;;;;;;5.70;2.40;;;;;;;;;;5032783;28;20190;-81
2023/07/03 09:15:16;;;;;;;6.85;2.60;;;;;;;;;;5032130;28;20222;-81
2023/07/03 09:17:43;;;;;;;4.20;2.67;;;;;;;;;;5032509;28;20222;-81
2023/07/03 09:20:11;;;;;;;7.43;2.72;;;;;;;;;;5032039;28;20721;-80
2023/07/03 09:22:42;;;;;;;6.18;2.75;;;;;;;;;;5032571;28;20207;-79
2023/07/03 09:25:12;;;;;;;9.35;2.97;;;;;;;;;;5031867;28;20241;-81
2023/07/03 09:27:41;;;;;;;5.82;2.70;;;;;;;;;;5032111;28;20205;-81
2023/07/03 09:30:09;;;;;;;7.35;2.50;;;;;;;;;;5031765;28;20234;-82
2023/07/03 09:32:36;;;;;;;4.63;2.10;;;;;;;;;;5032394;28;20218;-80
2023/07/03 09:35:06;;;;;;;6.82;2.58;;;;;;;;;;5031801;28;20238;-80
2023/07/03 09:37:33;;;;;;;4.88;2.58;;;;;;;;;;5031903;28;20609;-81
2023/07/03 09:40:00;;;;;;;6.97;2.55;;;;;;;;;;5031901;28;20247;-83
2023/07/03 09:42:27;;;;;;;4.25;2.35;;;;;;;;;;5032129;28;20668;-84
2023/07/03 09:44:56;;;;;;;6.13;2.85;;;;;;;;;;5031740;28;20320;-84
2023/07/03 09:47:26;;;;;;;10.35;2.17;;;;;;;;;;5032360;28;20191;-84
2023/07/03 09:49:53;;;;;;;3.60;2.40;;;;;;;;;;5031841;28;20296;-85
2023/07/03 09:52:20;;;;;;;5.82;2.47;;;;;;;;;;5032175;28;20575;-84
2023/07/03 09:54:49;;;;;;;4.93;2.22;;;;;;;;;;5031555;28;20237;-84
2023/07/03 09:57:20;;;;;;;6.80;2.42;;;;;;;;;;5031745;28;20234;-84
2023/07/03 09:59:47;;;;;;;5.80;2.60;;;;;;;;;;5031713;28;20677;-84
2023/07/03 10:02:17;;;;;;;2.50;2.25;;;;;;;;;;5031956;28;20210;-84
2023/07/03 10:04:44;;;;;;;5.03;2.60;;;;;;;;;;5031781;28;20312;-84
2023/07/03 10:07:14;;;;;;;6.75;2.47;;;;;;;;;;5032217;28;20203;-84
2023/07/03 10:09:42;;;;;;;5.78;2.80;;;;;;;;;;5031733;28;20647;-83
2023/07/03 10:12:12;;;;;;;5.20;2.45;;;;;;;;;;5031766;28;20206;-83
2023/07/03 10:14:42;;;;;;;3.53;2.30;;;;;;;;;;5031429;28;20230;-84
2023/07/03 10:17:12;;;;;;;6.75;2.42;;;;;;;;;;5031905;28;20301;-83
2023/07/03 10:19:42;;;;;;;5.63;2.80;;;;;;;;;;5031492;28;20262;-83
2023/07/03 10:22:09;;;;;;;3.90;2.00;;;;;;;;;;5032071;28;20210;-84
2023/07/03 10:24:37;;;;;;;41.97;4.18;;;;;;;;;;5031225;28;20254;-82
2023/07/03 10:27:04;;;;;;;3.05;2.20;;;;;;;;;;5035599;28;20214;-85
2023/07/03 10:29:33;;;;;;;7.63;2.40;;;;;;;;;;5035266;28;20736;-84
2023/07/03 10:32:02;;;;;;;4.18;2.10;;;;;;;;;;5036054;28;20653;-84
2023/07/03 10:34:37;;;;;;;4.30;2.17;;;;;;;;;;5035248;28;20234;-84
2023/07/03 10:37:06;;;;;;;4.55;1.80;;;;;;;;;;5035725;28;20213;-84
2023/07/03 10:39:38;;;;;;;5.85;2.08;;;;;;;;;;5034955;28;20234;-84
2023/07/03 10:42:07;;;;;;;4.13;1.92;;;;;;;;;;5035778;28;20194;-85
2023/07/03 10:44:38;;;;;;;4.07;2.20;;;;;;;;;;5035078;28;20263;-84
2023/07/03 10:47:07;;;;;;;8.60;2.33;;;;;;;;;;5035353;28;20211;-82
2023/07/03 10:49:36;;;;;;;4.53;2.25;;;;;;;;;;5034834;28;20249;-84
2023/07/03 10:52:11;;;;;;;3.60;1.90;;;;;;;;;;5035399;28;20298;-84
2023/07/03 10:54:40;;;;;;;4.32;2.30;;;;;;;;;;5035239;28;20237;-83
2023/07/03 10:57:08;;;;;;;3.38;2.15;;;;;;;;;;5035488;28;20211;-84
2023/07/03 10:59:37;;;;;;;3.08;2.15;;;;;;;;;;5034834;28;20820;-83
2023/07/03 11:02:12;;;;;;;2.80;2.17;;;;;;;;;;5035337;28;20625;-85
2023/07/03 11:04:43;;;;;;;4.40;2.72;;;;;;;;;;5035842;28;20237;-85
2023/07/03 11:07:15;;;;;;;6.07;2.17;;;;;;;;;;5035855;28;20209;-84
2023/07/03 11:09:45;;;;;;;4.78;2.50;;;;;;;;;;5034646;28;20234;-83
2023/07/03 11:12:17;;;;;;;7.45;2.38;;;;;;;;;;5035532;28;20739;-85
2023/07/03 11:14:49;;;;;;;5.85;2.45;;;;;;;;;;5034939;28;20642;-84
2023/07/03 11:17:19;;;;;;;4.97;2.03;;;;;;;;;;5035161;28;20206;-84
2023/07/03 11:19:49;;;;;;;5.85;2.50;;;;;;;;;;5034245;28;20712;-85
2023/07/03 11:22:19;;;;;;;3.13;2.30;;;;;;;;;;5035193;28;20210;-85
2023/07/03 11:24:53;;;;;;;4.80;2.35;;;;;;;;;;5034360;28;20238;-83
2023/07/03 11:27:27;;;;;;;11.45;3.75;;;;;;;;;;5034610;28;20214;-86
2023/07/03 11:29:55;;;;;;;4.53;2.20;;;;;;;;;;5035015;28;20242;-87
2023/07/03 11:32:23;;;;;;;4.00;2.40;;;;;;;;;;5035053;28;20214;-85
2023/07/03 11:34:51;;;;;;;5.53;2.08;;;;;;;;;;5034561;28;20665;-85
2023/07/03 11:37:33;;;;;;;4.18;2.20;;;;;;;;;;5034249;28;20293;-85
2023/07/03 11:40:20;;;;;;;10.57;2.50;;;;;;;;;;5034172;28;20238;-84
2023/07/03 11:42:47;;;;;;;2.97;2.00;;;;;;;;;;5034968;28;20253;-84
2023/07/03 11:45:25;;;;;;;3.10;2.00;;;;;;;;;;5034754;28;20215;-84
2023/07/03 11:47:53;;;;;;;7.32;2.30;;;;;;;;;;5034344;28;20673;-84
2023/07/03 11:50:27;;;;;;;4.03;2.30;;;;;;;;;;5034679;28;20214;-85
2023/07/03 11:52:56;;;;;;;3.95;2.28;;;;;;;;;;5034552;28;20190;-85
2023/07/03 11:55:34;;;;;;;5.28;2.55;;;;;;;;;;5034607;28;20214;-83
2023/07/03 11:58:02;;;;;;;4.65;2.33;;;;;;;;;;5033615;28;20211;-81
2023/07/03 12:00:30;;;;;;;6.57;2.63;;;;;;;;;;5034288;28;20203;-82
2023/07/03 12:02:57;;;;;;;5.60;2.60;;;;;;;;;;5034178;28;20627;-83
2023/07/03 12:05:43;;;;;;;6.07;2.33;;;;;;;;;;5034704;28;20211;-83
2023/07/03 12:08:13;;;;;;;4.72;2.63;;;;;;;;;;5033353;28;20229;-85
2023/07/03 12:10:57;;;;;;;5.40;2.72;;;;;;;;;;5034401;28;20187;-86
2023/07/03 12:13:35;;;;;;;3.20;2.33;;;;;;;;;;5033872;28;20242;-85
2023/07/03 12:16:04;;;;;;;5.25;2.10;;;;;;;;;;5033918;28;20579;-82
2023/07/03 12:18:31;;;;;;;6.03;2.92;;;;;;;;;;5033195;28;20239;-85
2023/07/03 12:20:59;;;;;;;3.17;1.95;;;;;;;;;;5033888;28;20203;-84
2023/07/03 12:23:38;;;;;;;4.63;2.42;;;;;;;;;;5033232;28;20245;-83
2023/07/03 12:26:06;;;;;;;5.50;2.50;;;;;;;;;;5033993;28;20256;-84
2023/07/03 12:28:33;;;;;;;3.25;2.22;;;;;;;;;;5033194;28;20712;-84
2023/07/03 12:31:11;;;;;;;6.53;2.92;;;;;;;;;;5033553;28;20206;-82
2023/07/03 12:33:38;;;;;;;5.35;2.55;;;;;;;;;;5032988;28;20230;-83
2023/07/03 12:36:05;;;;;;;4.32;2.45;;;;;;;;;;5033545;28;20227;-83
2023/07/03 12:38:33;;;;;;;4.75;2.00;;;;;;;;;;5032665;28;20242;-85
2023/07/03 12:41:01;;;;;;;9.00;2.90;;;;;;;;;;5033844;28;20207;-83
2023/07/03 12:43:28;;;;;;;6.45;3.15;;;;;;;;;;5033091;28;20238;-85
2023/07/03 12:45:56;;;;;;;6.97;2.90;;;;;;;;;;5033354;28;20218;-85
2023/07/03 12:48:23;;;;;;;3.13;2.15;;;;;;;;;;5031590;28;20246;-84
2023/07/03 12:50:52;;;;;;;7.60;3.00;;;;;;;;;;5033116;28;20238;-83
2023/07/03 12:53:19;;;;;;;9.93;3.70;;;;;;;;;;5032439;28;20241;-84
2023/07/03 12:55:49;;;;;;;3.35;2.50;;;;;;;;;;5033388;28;20210;-83
2023/07/03 12:58:19;;;;;;;4.18;2.10;;;;;;;;;;5032459;28;20245;-82
2023/07/03 13:00:46;;;;;;;5.93;2.33;;;;;;;;;;5032872;28;20199;-83
2023/07/03 13:03:14;;;;;;;3.95;2.20;;;;;;;;;;5032664;28;20226;-83
2023/07/03 13:05:42;;;;;;;5.60;2.80;;;;;;;;;;5033130;28;20202;-84
2023/07/03 13:08:12;;;;;;;5.57;2.38;;;;;;;;;;5031914;28;20262;-83
2023/07/03 13:10:39;;;;;;;4.18;2.58;;;;;;;;;;5032977;28;20222;-84
2023/07/03 13:13:08;;;;;;;5.68;2.10;;;;;;;;;;5032455;28;20234;-84
2023/07/03 13:15:37;;;;;;;3.92;2.70;;;;;;;;;;5032216;28;20302;-85
2023/07/03 13:18:05;;;;;;;3.75;2.28;;;;;;;;;;5032063;28;20316;-84
2023/07/03 13:20:32;;;;;;;4.38;2.20;;;;;;;;;;5032584;28;20210;-83
2023/07/03 13:23:01;;;;;;;3.28;2.50;;;;;;;;;;5032016;28;20206;-85
2023/07/03 13:25:31;;;;;;;6.65;3.13;;;;;;;;;;5032358;28;20210;-83
2023/07/03 13:27:59;;;;;;;4.32;2.60;;;;;;;;;;5031997;28;20206;-83
2023/07/03 13:30:27;;;;;;;4.78;2.38;;;;;;;;;;5032259;28;20203;-82
2023/07/03 13:33:00;;;;;;;4.28;2.40;;;;;;;;;;5031905;28;20206;-83
2023/07/03 13:35:28;;;;;;;4.38;2.20;;;;;;;;;;5032427;28;20293;-83
2023/07/03 13:38:09;;;;;;;5.78;2.10;;;;;;;;;;5031724;28;20213;-83
2023/07/03 13:40:36;;;;;;;6.07;2.55;;;;;;;;;;5032511;28;20195;-83
2023/07/03 13:43:04;;;;;;;5.85;2.58;;;;;;;;;;5031765;28;20211;-83
2023/07/03 13:45:31;;;;;;;4.15;2.00;;;;;;;;;;5032116;28;20221;-84
2023/07/03 13:47:59;;;;;;;7.78;2.47;;;;;;;;;;5031454;28;20723;-82
2023/07/03 13:50:28;;;;;;;4.60;2.47;;;;;;;;;;5032000;28;20210;-83
2023/07/03 13:52:55;;;;;;;5.43;2.50;;;;;;;;;;5032174;28;20217;-82
2023/07/03 13:55:22;;;;;;;6.65;2.60;;;;;;;;;;5032164;28;20632;-83
2023/07/03 13:57:49;;;;;;;6.53;2.50;;;;;;;;;;5032093;28;20217;-84
2023/07/03 14:00:16;;;;;;;5.05;2.67;;;;;;;;;;5032404;28;20234;-85
2023/07/03 14:02:44;;;;;;;3.50;2.10;;;;;;;;;;5031964;28;20202;-85
2023/07/03 14:05:13;;;;;;;5.00;2.13;;;;;;;;;;5032559;28;20246;-83
2023/07/03 14:07:40;;;;;;;7.00;2.30;;;;;;;;;;5031662;28;20769;-84
2023/07/03 14:10:08;;;;;;;8.45;2.42;;;;;;;;;;5031415;28;20727;-83
2023/07/03 14:12:35;;;;;;;5.70;2.25;;;;;;;;;;5031993;28;20215;-85
2023/07/03 14:15:02;;;;;;;3.00;2.08;;;;;;;;;;5031695;28;20231;-83
2023/07/03 14:17:29;;;;;;;5.47;2.30;;;;;;;;;;5032948;28;20207;-86
2023/07/03 14:19:56;;;;;;;5.55;2.10;;;;;;;;;;5031240;28;20240;-84
2023/07/03 14:22:25;;;;;;;4.57;2.17;;;;;;;;;;5031784;28;20694;-84
2023/07/03 14:24:52;;;;;;;3.17;1.90;;;;;;;;;;5031178;28;20289;-84
2023/07/03 14:27:19;;;;;;;4.47;2.45;;;;;;;;;;5031902;28;20207;-83
2023/07/03 14:29:46;;;;;;;5.40;2.65;;;;;;;;;;5031044;28;20239;-84
2023/07/03 14:32:13;;;;;;;3.65;2.13;;;;;;;;;;5032039;28;20214;-84
2023/07/03 14:34:40;;;;;;;5.65;2.22;;;;;;;;;;5031295;28;20249;-82
2023/07/03 14:37:07;;;;;;;3.40;2.20;;;;;;;;;;5031835;28;20206;-84
2023/07/03 14:39:36;;;;;;;3.63;2.05;;;;;;;;;;5030946;28;20242;-83
2023/07/03 14:42:03;;;;;;;4.95;2.05;;;;;;;;;;5031945;28;20579;-84